createdAt,value
2023-01-13T00:02:24.208Z,60.28
2023-01-13T00:06:08.751Z,60.39
2023-01-13T00:09:51.466Z,60.59
2023-01-13T00:13:35.439Z,60.33
2023-01-13T00:17:18.206Z,60.70
2023-01-13T00:21:01.408Z,60.45
2023-01-13T00:24:45.383Z,60.57
2023-01-13T00:28:28.049Z,60.70
2023-01-13T00:32:10.744Z,60.40
2023-01-13T00:35:58.370Z,60.58
2023-01-13T00:39:41.122Z,60.72
2023-01-13T00:43:26.720Z,60.66
2023-01-13T00:47:09.325Z,60.41
2023-01-13T00:50:56.351Z,60.45
2023-01-13T00:54:39.005Z,60.57
2023-01-13T00:58:21.658Z,60.47
2023-01-13T01:02:05.755Z,60.66
2023-01-13T01:05:48.413Z,60.25
2023-01-13T01:09:34.665Z,60.06
2023-01-13T01:13:17.443Z,59.80
2023-01-13T01:17:00.207Z,59.35
2023-01-13T01:20:44.180Z,59.59
2023-01-13T01:24:26.822Z,59.15
2023-01-13T01:28:09.670Z,58.94
2023-01-13T01:31:52.368Z,58.77
2023-01-13T01:35:35.138Z,58.53
2023-01-13T01:39:19.181Z,58.32
2023-01-13T01:43:19.282Z,58.14
2023-01-13T01:47:02.054Z,57.89
2023-01-13T01:50:44.859Z,57.90
2023-01-13T01:54:32.316Z,58.18
2023-01-13T01:58:20.945Z,57.71
2023-01-13T02:02:03.977Z,57.26
2023-01-13T02:05:46.738Z,57.07
2023-01-13T02:09:31.288Z,56.69
2023-01-13T02:13:14.417Z,55.93
2023-01-13T02:17:08.952Z,55.72
2023-01-13T02:21:15.732Z,55.08
2023-01-13T02:25:23.326Z,55.60
2023-01-13T02:29:31.131Z,55.53
2023-01-13T02:33:27.439Z,55.53
2023-01-13T02:37:15.184Z,55.52
2023-01-13T02:41:20.940Z,55.11
2023-01-13T02:45:07.084Z,55.52
2023-01-13T02:48:51.942Z,55.31
2023-01-13T02:52:37.273Z,55.36
2023-01-13T02:56:21.699Z,56.06
2023-01-13T03:00:05.606Z,56.00
2023-01-13T03:03:50.026Z,55.69
2023-01-13T03:07:45.529Z,55.85
2023-01-13T03:11:31.528Z,55.92
2023-01-13T03:15:18.872Z,55.83
2023-01-13T03:19:13.305Z,56.04
2023-01-13T03:23:01.320Z,55.98
2023-01-13T03:26:47.410Z,55.80
2023-01-13T03:30:33.290Z,55.49
2023-01-13T03:34:18.583Z,56.03
2023-01-13T03:38:06.899Z,55.76
2023-01-13T03:41:53.043Z,55.70
2023-01-13T03:45:37.338Z,55.71
2023-01-13T03:49:21.770Z,55.76
2023-01-13T03:53:08.690Z,55.49
2023-01-13T03:56:55.615Z,54.88
2023-01-13T04:00:41.389Z,54.89
2023-01-13T04:04:27.943Z,54.66
2023-01-13T04:08:17.999Z,54.31
2023-01-13T04:12:03.284Z,53.77
2023-01-13T04:15:47.919Z,53.28
2023-01-13T04:19:31.651Z,52.85
2023-01-13T04:23:16.397Z,52.53
2023-01-13T04:26:59.043Z,52.03
2023-01-13T04:30:42.068Z,52.49
2023-01-13T04:34:26.384Z,51.72
2023-01-13T04:38:12.994Z,51.38
2023-01-13T04:42:01.287Z,51.59
2023-01-13T04:45:44.610Z,51.11
2023-01-13T04:49:27.316Z,51.27
2023-01-13T04:53:10.004Z,51.17
2023-01-13T04:56:52.717Z,50.99
2023-01-13T05:00:36.803Z,51.05
2023-01-13T05:04:19.526Z,51.39
2023-01-13T05:08:02.211Z,51.23
2023-01-13T05:12:05.001Z,51.77
2023-01-13T05:16:07.184Z,52.24
2023-01-13T05:19:50.359Z,51.93
2023-01-13T05:23:50.463Z,52.32
2023-01-13T05:27:33.577Z,51.86
2023-01-13T05:31:17.681Z,51.90
2023-01-13T05:35:00.485Z,51.75
2023-01-13T05:38:43.410Z,51.78
2023-01-13T05:42:43.518Z,51.99
2023-01-13T05:46:27.648Z,51.73
2023-01-13T05:50:11.685Z,51.83
2023-01-13T05:53:54.607Z,51.97
2023-01-13T05:57:37.809Z,51.99
2023-01-13T06:01:20.614Z,51.83
2023-01-13T06:05:05.322Z,52.18
2023-01-13T06:08:48.038Z,52.20
2023-01-13T06:12:33.728Z,52.42
2023-01-13T06:16:16.579Z,53.04
2023-01-13T06:19:59.449Z,52.94
2023-01-13T06:23:43.487Z,53.14
2023-01-13T06:27:26.214Z,53.27
2023-01-13T06:31:10.622Z,53.54
2023-01-13T06:34:58.848Z,53.49
2023-01-13T06:38:46.250Z,53.61
2023-01-13T06:42:47.300Z,53.69
2023-01-13T06:46:30.054Z,53.59
2023-01-13T06:50:12.967Z,54.08
2023-01-13T06:53:57.104Z,54.25
2023-01-13T06:57:51.671Z,54.02
2023-01-13T07:01:34.492Z,53.75
2023-01-13T07:05:19.294Z,53.74
2023-01-13T07:09:04.635Z,53.92
2023-01-13T07:13:07.165Z,53.82
2023-01-13T07:16:50.421Z,54.07
2023-01-13T07:20:34.052Z,54.18
2023-01-13T07:24:18.296Z,54.16
2023-01-13T07:28:01.184Z,54.16
2023-01-13T07:31:43.959Z,54.76
2023-01-13T07:35:26.736Z,54.70
2023-01-13T07:39:09.432Z,54.07
2023-01-13T07:43:10.791Z,54.11
2023-01-13T07:46:53.511Z,54.23
2023-01-13T07:50:36.251Z,53.85
2023-01-13T07:54:19.421Z,53.97
2023-01-13T07:58:03.617Z,53.52
2023-01-13T08:01:46.451Z,53.47
2023-01-13T08:05:29.270Z,53.24
2023-01-13T08:09:12.107Z,53.55
2023-01-13T08:13:12.620Z,55.55
2023-01-13T08:16:56.690Z,53.49
2023-01-13T08:20:39.441Z,52.85
2023-01-13T08:24:22.188Z,53.14
2023-01-13T08:28:05.099Z,53.03
2023-01-13T08:31:47.799Z,52.87
2023-01-13T08:35:31.905Z,52.46
2023-01-13T08:39:14.620Z,52.50
2023-01-13T08:42:57.354Z,53.01
2023-01-13T08:46:40.073Z,53.80
2023-01-13T08:50:22.894Z,53.52
2023-01-13T08:54:07.057Z,52.60
2023-01-13T08:57:49.772Z,53.20
2023-01-13T09:01:32.905Z,52.34
2023-01-13T09:05:17.662Z,52.18
2023-01-13T09:09:02.380Z,51.63
2023-01-13T09:13:04.131Z,51.54
2023-01-13T09:16:46.858Z,51.35
2023-01-13T09:20:29.540Z,51.04
2023-01-13T09:24:12.250Z,50.80
2023-01-13T09:27:56.301Z,50.63
2023-01-13T09:31:39.128Z,49.95
2023-01-13T09:35:21.819Z,50.25
2023-01-13T09:39:05.659Z,49.98
2023-01-13T09:43:11.793Z,49.78
2023-01-13T09:47:00.162Z,49.58
2023-01-13T09:50:52.441Z,49.66
2023-01-13T09:54:41.529Z,49.28
2023-01-13T09:58:25.117Z,48.94
2023-01-13T10:02:30.315Z,49.79
2023-01-13T10:06:16.160Z,50.00
2023-01-13T10:10:00.759Z,50.36
2023-01-13T10:13:44.975Z,50.20
2023-01-13T10:17:34.344Z,50.26
2023-01-13T10:21:29.167Z,50.31
2023-01-13T10:25:32.490Z,50.10
2023-01-13T10:29:21.808Z,50.30
2023-01-13T10:33:12.507Z,50.36
2023-01-13T10:37:01.564Z,50.62
2023-01-13T10:40:50.343Z,51.25
2023-01-13T10:44:33.639Z,51.02
2023-01-13T10:48:17.967Z,50.30
2023-01-13T10:52:01.988Z,50.55
2023-01-13T10:55:59.746Z,50.20
2023-01-13T10:59:42.908Z,49.89
2023-01-13T11:03:27.934Z,49.98
2023-01-13T11:07:21.254Z,50.69
2023-01-13T11:11:04.280Z,52.86
2023-01-13T11:14:48.409Z,53.11
2023-01-13T11:18:41.175Z,54.14
2023-01-13T11:22:26.569Z,55.55
2023-01-13T11:26:14.230Z,56.14
2023-01-13T11:30:09.654Z,56.81
2023-01-13T11:33:57.498Z,55.96
2023-01-13T11:37:41.952Z,55.56
2023-01-13T11:41:43.421Z,55.40
2023-01-13T11:45:31.785Z,55.74
2023-01-13T11:49:23.325Z,55.98
2023-01-13T11:53:13.876Z,56.04
2023-01-13T11:57:19.268Z,56.70
2023-01-13T12:01:13.461Z,56.08
2023-01-13T12:05:02.703Z,56.04
2023-01-13T12:09:11.961Z,55.88
2023-01-13T12:13:00.309Z,55.82
2023-01-13T12:16:48.832Z,55.98
2023-01-13T12:20:38.280Z,55.97
2023-01-13T12:24:27.688Z,56.24
2023-01-13T12:28:14.150Z,56.14
2023-01-13T12:31:57.060Z,56.33
2023-01-13T12:35:43.384Z,56.23
2023-01-13T12:39:38.809Z,56.77
2023-01-13T12:43:40.099Z,57.56
2023-01-13T12:47:35.173Z,58.58
2023-01-13T12:51:27.680Z,61.57
2023-01-13T12:55:15.467Z,62.89
2023-01-13T12:59:40.005Z,64.06
2023-01-13T13:03:32.579Z,63.28
2023-01-13T13:07:19.807Z,63.16
2023-01-13T13:11:38.007Z,62.55
2023-01-13T13:15:22.027Z,60.99
2023-01-13T13:19:43.405Z,60.91
2023-01-13T13:23:48.234Z,60.23
2023-01-13T13:27:41.516Z,59.74
2023-01-13T13:31:39.082Z,59.47
2023-01-13T13:35:42.019Z,59.15
2023-01-13T13:39:45.824Z,59.57
2023-01-13T13:43:46.745Z,59.06
2023-01-13T13:47:36.293Z,57.03
2023-01-13T13:51:26.453Z,57.02
2023-01-13T13:55:18.491Z,56.90
2023-01-13T13:59:01.266Z,57.03
2023-01-13T14:02:49.313Z,57.11
2023-01-13T14:06:32.835Z,56.48
2023-01-13T14:10:20.668Z,56.96
2023-01-13T14:14:05.619Z,64.83
2023-01-13T14:17:49.268Z,73.09
2023-01-13T14:21:33.021Z,77.64
2023-01-13T14:25:38.259Z,82.33
2023-01-13T14:29:22.847Z,85.05
2023-01-13T14:33:06.352Z,85.55
2023-01-13T14:36:51.229Z,84.35
2023-01-13T14:40:47.951Z,82.86
2023-01-13T14:44:32.335Z,82.98
2023-01-13T14:48:15.126Z,82.26
2023-01-13T14:52:08.786Z,82.35
2023-01-13T14:55:52.957Z,81.39
2023-01-13T14:59:55.402Z,82.17
2023-01-13T15:03:42.307Z,82.29
2023-01-13T15:07:27.414Z,81.25
2023-01-13T15:11:21.846Z,80.77
2023-01-13T15:15:05.963Z,80.85
2023-01-13T15:18:49.359Z,81.54
2023-01-13T15:22:32.107Z,82.86
2023-01-13T15:26:20.253Z,84.75
2023-01-13T15:30:02.996Z,84.80
2023-01-13T15:33:45.707Z,84.67
2023-01-13T15:37:28.523Z,84.55
2023-01-13T15:41:13.498Z,83.56
2023-01-13T15:45:15.287Z,84.04
2023-01-13T15:48:58.567Z,83.99
2023-01-13T15:52:41.375Z,83.83
2023-01-13T15:56:26.553Z,84.42
2023-01-13T16:00:16.181Z,83.85
2023-01-13T16:04:01.405Z,84.00
2023-01-13T16:07:44.085Z,84.79
2023-01-13T16:11:26.808Z,84.50
2023-01-13T16:15:13.750Z,85.13
2023-01-13T16:18:57.040Z,86.21
2023-01-13T16:22:39.757Z,86.63
2023-01-13T16:26:24.465Z,86.46
2023-01-13T16:30:08.693Z,85.63
2023-01-13T16:33:52.978Z,84.70
2023-01-13T16:37:35.687Z,84.31
2023-01-13T16:41:19.291Z,83.03
2023-01-13T16:45:08.351Z,82.66
2023-01-13T16:48:53.421Z,83.35
2023-01-13T16:52:36.090Z,82.58
2023-01-13T16:56:27.122Z,81.51
2023-01-13T17:00:12.522Z,81.83
2023-01-13T17:03:57.014Z,81.58
2023-01-13T17:07:39.823Z,82.05
2023-01-13T17:11:22.690Z,82.12
2023-01-13T17:15:06.180Z,83.12
2023-01-13T17:18:49.451Z,83.50
2023-01-13T17:22:33.529Z,83.36
2023-01-13T17:26:32.083Z,81.72
2023-01-13T17:30:15.233Z,80.83
2023-01-13T17:33:58.044Z,81.00
2023-01-13T17:37:42.095Z,80.18
2023-01-13T17:41:25.398Z,80.39
2023-01-13T17:45:11.310Z,80.39
2023-01-13T17:48:54.097Z,78.56
2023-01-13T17:52:36.756Z,78.37
2023-01-13T17:56:20.920Z,77.43
2023-01-13T18:00:04.567Z,77.21
2023-01-13T18:03:47.381Z,76.30
2023-01-13T18:07:30.103Z,76.75
2023-01-13T18:11:12.867Z,75.94
2023-01-13T18:14:56.888Z,75.99
2023-01-13T18:18:41.684Z,75.00
2023-01-13T18:22:42.091Z,75.75
2023-01-13T18:26:53.938Z,76.45
2023-01-13T18:30:38.077Z,76.19
2023-01-13T18:34:22.718Z,76.00
2023-01-13T18:38:05.480Z,75.36
2023-01-13T18:42:05.786Z,74.89
2023-01-13T18:45:52.306Z,74.60
2023-01-13T18:49:35.070Z,74.63
2023-01-13T18:53:17.861Z,74.51
2023-01-13T18:57:02.744Z,73.51
2023-01-13T19:00:46.606Z,72.34
2023-01-13T19:04:32.489Z,70.87
2023-01-13T19:08:15.655Z,70.00
2023-01-13T19:11:59.144Z,70.33
2023-01-13T19:15:41.844Z,70.18
2023-01-13T19:19:24.537Z,70.09
2023-01-13T19:23:08.523Z,69.97
2023-01-13T19:26:51.224Z,69.76
2023-01-13T19:30:33.919Z,69.91
2023-01-13T19:34:16.854Z,70.04
2023-01-13T19:37:59.504Z,70.24
2023-01-13T19:42:01.085Z,69.99
2023-01-13T19:45:44.884Z,69.78
2023-01-13T19:49:27.515Z,70.55
2023-01-13T19:57:10.339Z,70.94
2023-01-13T20:00:53.831Z,71.20
2023-01-13T20:04:38.508Z,71.94
2023-01-13T20:08:21.790Z,71.76
2023-01-13T20:12:06.973Z,72.33
2023-01-13T20:15:50.970Z,72.70
2023-01-13T20:19:33.801Z,71.99
2023-01-13T20:23:16.491Z,72.79
2023-01-13T20:26:59.254Z,76.08
2023-01-13T20:30:41.937Z,81.21
2023-01-13T20:34:26.014Z,83.40
2023-01-13T20:38:08.798Z,86.07
2023-01-13T20:42:09.043Z,88.56
2023-01-13T20:45:51.687Z,90.48
2023-01-13T20:49:36.893Z,90.15
2023-01-13T20:53:19.533Z,90.78
2023-01-13T20:57:02.207Z,89.91
2023-01-13T21:00:44.918Z,90.01
2023-01-13T21:04:28.763Z,88.55
2023-01-13T21:08:12.951Z,84.90
2023-01-13T21:12:13.071Z,83.12
2023-01-13T21:15:56.315Z,81.63
2023-01-13T21:19:38.984Z,81.45
2023-01-13T21:23:22.969Z,79.86
2023-01-13T21:27:08.720Z,80.24
2023-01-13T21:30:52.725Z,80.47
2023-01-13T21:34:35.426Z,81.02
2023-01-13T21:38:18.076Z,81.95
2023-01-13T21:42:19.469Z,82.20
2023-01-13T21:46:19.948Z,82.89
2023-01-13T21:50:02.662Z,84.35
2023-01-13T21:53:45.337Z,84.61
2023-01-13T21:57:29.347Z,86.03
2023-01-13T22:01:12.275Z,85.60
2023-01-13T22:04:55.073Z,85.33
2023-01-13T22:08:37.776Z,84.91
2023-01-13T22:12:23.335Z,85.14
2023-01-13T22:16:09.173Z,85.35
2023-01-13T22:19:53.773Z,85.35
2023-01-13T22:23:36.426Z,84.84
2023-01-13T22:27:22.153Z,84.99
2023-01-13T22:31:10.942Z,85.63
2023-01-13T22:34:53.626Z,85.84
2023-01-13T22:38:36.621Z,85.26
2023-01-13T22:42:19.467Z,84.55
2023-01-13T22:46:04.604Z,84.61
2023-01-13T22:49:50.131Z,84.68
2023-01-13T22:53:35.492Z,84.04
2023-01-13T22:57:19.018Z,83.63
2023-01-13T23:01:10.110Z,83.31
2023-01-13T23:04:54.261Z,83.29
2023-01-13T23:08:37.343Z,82.88
2023-01-13T23:12:20.114Z,82.76
2023-01-13T23:16:06.981Z,82.61
2023-01-13T23:19:49.823Z,82.38
2023-01-13T23:23:34.873Z,100.00
2023-01-13T23:27:17.722Z,80.48
2023-01-13T23:31:00.649Z,80.54
2023-01-13T23:34:43.341Z,81.23
2023-01-13T23:38:26.116Z,81.62
2023-01-13T23:42:10.149Z,81.51
2023-01-13T23:45:53.688Z,81.78
2023-01-13T23:49:36.421Z,81.67
2023-01-13T23:53:19.052Z,81.72
2023-01-13T23:57:01.754Z,81.33
